createdAt,value
2022-09-15T00:04:43.219Z,24.5
2022-09-15T00:09:45.862Z,24.4
2022-09-15T00:14:47.866Z,24.6
2022-09-15T00:19:47.141Z,24.5
2022-09-15T00:24:47.029Z,24.5
2022-09-15T00:29:46.964Z,24.5
2022-09-15T00:34:49.829Z,24.6
2022-09-15T00:39:49.014Z,24.5
2022-09-15T00:44:48.825Z,24.5
2022-09-15T00:49:53.167Z,24.6
2022-09-15T00:54:51.148Z,24.4
2022-09-15T00:59:50.755Z,24.4
2022-09-15T01:04:57.516Z,24.6
2022-09-15T01:09:52.924Z,24.4
2022-09-15T01:14:55.305Z,24.4
2022-09-15T01:19:54.761Z,23.9
2022-09-15T01:24:54.623Z,24.4
2022-09-15T01:29:54.499Z,24.4
2022-09-15T01:34:56.988Z,24.2
2022-09-15T01:39:56.262Z,24.3
2022-09-15T01:44:55.758Z,24.3
2022-09-15T01:49:55.482Z,24.3
2022-09-15T01:54:55.119Z,24.3
2022-09-15T01:59:55.132Z,24.3
2022-09-15T02:04:55.151Z,24.3
2022-09-15T02:09:55.085Z,24.3
2022-09-15T02:14:54.872Z,24.3
2022-09-15T02:19:57.659Z,24.4
2022-09-15T02:24:56.957Z,24.2
2022-09-15T02:29:56.882Z,24
2022-09-15T02:34:56.453Z,24.2
2022-09-15T02:40:00.880Z,24.3
2022-09-15T02:45:00.166Z,24.2
2022-09-15T02:50:01.834Z,23.9
2022-09-15T02:55:01.449Z,23.6
2022-09-15T03:00:01.368Z,24.2
2022-09-15T03:05:01.389Z,24.2
2022-09-15T03:10:01.405Z,24.1
2022-09-15T03:15:01.258Z,23.8
2022-09-15T03:20:01.207Z,24.1
2022-09-15T03:25:01.176Z,24.1
2022-09-15T03:30:00.923Z,24.1
2022-09-15T03:35:00.777Z,24.1
2022-09-15T03:40:00.731Z,24.1
2022-09-15T03:45:00.843Z,24.1
2022-09-15T03:50:00.722Z,23.8
2022-09-15T03:55:00.660Z,24
2022-09-15T04:00:00.487Z,24
2022-09-15T04:05:00.410Z,24
2022-09-15T04:10:00.431Z,24
2022-09-15T04:15:00.431Z,24
2022-09-15T04:20:00.231Z,23.7
2022-09-15T04:25:00.119Z,24
2022-09-15T04:29:59.753Z,24
2022-09-15T04:34:59.586Z,24.1
2022-09-15T04:39:59.747Z,23.8
2022-09-15T04:44:59.656Z,24.2
2022-09-15T04:49:59.649Z,24.3
2022-09-15T04:54:59.363Z,24.4
2022-09-15T04:59:59.283Z,24.4
2022-09-15T05:04:59.312Z,24.5
2022-09-15T05:10:01.956Z,24.5
2022-09-15T05:15:04.159Z,24.7
2022-09-15T05:20:03.781Z,24.7
2022-09-15T05:25:03.295Z,24.7
2022-09-15T05:30:23.866Z,24.8
2022-09-15T05:35:03.204Z,24.8
2022-09-15T05:40:08.566Z,24.8
2022-09-15T05:45:05.072Z,24.9
2022-09-15T05:50:05.009Z,24.9
2022-09-15T05:55:04.999Z,25
2022-09-15T06:00:04.903Z,25
2022-09-15T06:05:04.839Z,24.9
2022-09-15T06:10:04.758Z,25.2
2022-09-15T06:15:04.487Z,25.2
2022-09-15T06:20:04.536Z,25
2022-09-15T06:25:07.144Z,25.1
2022-09-15T06:30:09.251Z,24.7
2022-09-15T06:35:08.505Z,25.1
2022-09-15T06:40:08.467Z,25.2
2022-09-15T06:45:07.797Z,25.2
2022-09-15T06:50:07.643Z,25.3
2022-09-15T06:55:07.265Z,25.3
2022-09-15T07:00:07.112Z,25.4
2022-09-15T07:05:06.583Z,25.2
2022-09-15T07:10:06.240Z,25.4
2022-09-15T07:15:06.017Z,25.5
2022-09-15T07:20:08.361Z,25.7
2022-09-15T07:25:07.790Z,25.9
2022-09-15T07:30:07.914Z,26.1
2022-09-15T07:35:07.834Z,26
2022-09-15T07:40:07.880Z,26
2022-09-15T07:45:07.762Z,25.9
2022-09-15T07:50:07.585Z,25.6
2022-09-15T07:55:06.235Z,25.2
2022-09-15T08:00:08.988Z,25.8
2022-09-15T08:05:10.910Z,25.7
2022-09-15T08:10:13.054Z,25.6
2022-09-15T08:15:12.300Z,25.6
2022-09-15T08:20:12.111Z,25.6
2022-09-15T08:25:14.603Z,25.8
2022-09-15T08:30:16.804Z,25.8
2022-09-15T08:35:19.087Z,25.6
2022-09-15T08:40:20.876Z,25.8
2022-09-15T08:45:20.340Z,25.6
2022-09-15T08:50:23.012Z,25.8
2022-09-15T08:55:25.101Z,25.7
2022-09-15T09:00:27.311Z,25.8
2022-09-15T09:05:26.447Z,25.6
2022-09-15T09:10:26.259Z,25.6
2022-09-15T09:15:28.833Z,25.8
2022-09-15T09:20:26.817Z,25.4
2022-09-15T09:25:29.591Z,25.9
2022-09-15T09:30:31.410Z,25.9
2022-09-15T09:35:33.521Z,25.9
2022-09-15T09:40:32.749Z,25.4
2022-09-15T09:45:35.359Z,25.8
2022-09-15T09:50:37.189Z,25.7
2022-09-15T09:55:36.610Z,25.6
2022-09-15T10:00:36.439Z,25.6
2022-09-15T10:05:36.361Z,25.6
2022-09-15T10:10:38.990Z,25.7
2022-09-15T10:15:40.974Z,25.6
2022-09-15T10:20:43.174Z,25.7
2022-09-15T10:25:58.935Z,25.6
2022-09-15T10:30:45.297Z,25.8
2022-09-15T10:35:47.613Z,25.8
2022-09-15T10:40:49.918Z,25.6
2022-09-15T10:45:51.995Z,25.8
2022-09-15T10:50:51.321Z,25.6
2022-09-15T10:55:53.485Z,25.6
2022-09-15T11:00:51.281Z,25.7
2022-09-15T11:05:53.989Z,25.5
2022-09-15T11:10:56.183Z,25.8
2022-09-15T11:15:58.504Z,25.5
2022-09-15T11:20:57.914Z,25.8
2022-09-15T11:26:00.466Z,26
2022-09-15T11:31:02.763Z,25.9
2022-09-15T11:36:02.235Z,25.6
2022-09-15T11:41:04.691Z,26
2022-09-15T11:46:07.099Z,26
2022-09-15T11:51:09.128Z,26.3
2022-09-15T11:56:11.173Z,26
2022-09-15T12:01:10.463Z,26
2022-09-15T12:06:12.851Z,25.7
2022-09-15T12:11:14.894Z,26
2022-09-15T12:16:17.228Z,26
2022-09-15T12:41:19.800Z,25.5
2022-09-15T12:46:22.628Z,26
2022-09-15T12:51:21.946Z,26
2022-09-15T12:56:24.614Z,26.1
2022-09-15T13:01:23.866Z,26
2022-09-15T13:06:26.260Z,26.1
2022-09-15T13:11:28.373Z,26.1
2022-09-15T13:16:30.528Z,26
2022-09-15T13:21:32.785Z,26.2
2022-09-15T13:26:34.992Z,26
2022-09-15T13:31:37.283Z,26.2
2022-09-15T13:41:41.562Z,26.3
2022-09-15T13:46:43.638Z,26.3
2022-09-15T13:51:46.409Z,26.4
2022-09-15T13:56:47.915Z,26.4
2022-09-15T14:01:50.096Z,26.4
2022-09-15T14:06:54.236Z,26.8
2022-09-15T14:11:54.764Z,26.8
2022-09-15T14:16:56.959Z,26.7
2022-09-15T14:21:58.431Z,27
2022-09-15T14:26:57.935Z,26.9
2022-09-15T14:32:00.075Z,27
2022-09-15T14:37:02.168Z,27
2022-09-15T14:42:04.336Z,26.8
2022-09-15T14:47:06.394Z,27
2022-09-15T14:52:05.673Z,27
2022-09-15T14:57:07.669Z,27.1
2022-09-15T15:02:06.821Z,26.7
2022-09-15T15:07:06.522Z,27
2022-09-15T15:12:09.196Z,27.1
2022-09-15T15:17:08.572Z,27
2022-09-15T15:22:11.175Z,27.1
2022-09-15T15:27:13.422Z,26.2
2022-09-15T15:32:12.731Z,27
2022-09-15T15:37:15.274Z,27.1
2022-09-15T15:42:14.484Z,26.7
2022-09-15T15:47:14.207Z,27
2022-09-15T15:52:14.271Z,27
2022-09-15T15:57:14.182Z,27
2022-09-15T16:02:16.607Z,27.1
2022-09-15T16:07:16.010Z,27
2022-09-15T16:12:18.502Z,27.1
2022-09-15T16:17:20.634Z,27.1
2022-09-15T16:22:22.861Z,27.1
2022-09-15T16:27:24.873Z,27.1
2022-09-15T16:32:27.078Z,27
2022-09-15T16:37:29.195Z,27.1
2022-09-15T16:42:31.020Z,27.1
2022-09-15T16:47:33.102Z,27
2022-09-15T16:52:32.525Z,26.4
2022-09-15T16:57:32.209Z,26.8
2022-09-15T17:02:34.719Z,26.9
2022-09-15T17:07:36.288Z,26.8
2022-09-15T17:12:35.528Z,26.7
2022-09-15T17:17:37.922Z,26.7
2022-09-15T17:22:40.080Z,26.6
2022-09-15T17:27:42.186Z,26.7
2022-09-15T17:32:43.857Z,26.7
2022-09-15T17:37:43.107Z,26.5
2022-09-15T17:42:42.797Z,26.5
2022-09-15T17:47:45.324Z,26.6
2022-09-15T17:52:44.362Z,26.5
2022-09-15T17:57:44.212Z,26.5
2022-09-15T18:02:43.788Z,26.5
2022-09-15T18:07:43.552Z,26.4
2022-09-15T18:12:45.293Z,26.4
2022-09-15T18:17:45.978Z,26.5
2022-09-15T18:22:48.190Z,26.5
2022-09-15T18:27:50.386Z,26.5
2022-09-15T18:32:52.551Z,26.4
2022-09-15T18:37:54.910Z,26.5
2022-09-15T18:42:56.792Z,26.1
2022-09-15T18:47:55.766Z,26.3
2022-09-15T18:52:58.182Z,26
2022-09-15T18:58:01.061Z,26.4
2022-09-15T19:02:59.262Z,26.3
2022-09-15T19:08:01.879Z,26.2
2022-09-15T19:13:01.343Z,26.2
2022-09-15T19:18:04.095Z,26.3
2022-09-15T19:23:06.070Z,26.3
2022-09-15T19:28:08.186Z,26.3
2022-09-15T19:33:07.852Z,26.3
2022-09-15T19:38:09.520Z,26.1
2022-09-15T19:43:11.424Z,26.3
2022-09-15T19:48:13.500Z,26.2
2022-09-15T19:53:15.245Z,26.3
2022-09-15T19:58:17.332Z,26.3
2022-09-15T20:03:19.412Z,26.3
2022-09-15T20:08:21.436Z,26.2
2022-09-15T20:13:23.552Z,26.2
2022-09-15T20:18:25.503Z,26.1
2022-09-15T20:23:23.726Z,25.5
2022-09-15T20:28:26.135Z,26.2
2022-09-15T20:33:28.244Z,26.1
2022-09-15T20:38:30.318Z,25.9
2022-09-15T20:43:29.630Z,26
2022-09-15T20:48:32.110Z,26.1
2022-09-15T20:53:31.224Z,26
2022-09-15T20:58:33.897Z,26
2022-09-15T21:03:33.503Z,26
2022-09-15T21:08:33.434Z,26
2022-09-15T21:13:35.939Z,26
2022-09-15T21:18:37.818Z,26
2022-09-15T21:23:37.327Z,26
2022-09-15T21:28:37.199Z,25.8
2022-09-15T21:33:39.859Z,26
2022-09-15T21:38:41.956Z,26.1
2022-09-15T21:43:41.310Z,26
2022-09-15T21:48:44.152Z,26.1
2022-09-15T21:53:43.463Z,25.9
2022-09-15T21:58:46.302Z,25.8
2022-09-15T22:03:44.406Z,26.1
2022-09-15T22:08:44.432Z,25.9
2022-09-15T22:13:44.371Z,25.8
2022-09-15T22:18:44.325Z,25.9
2022-09-15T22:23:47.069Z,25.9
2022-09-15T22:28:46.300Z,25.9
2022-09-15T22:33:49.017Z,25.9
2022-09-15T22:38:51.261Z,26
2022-09-15T22:43:53.099Z,26
2022-09-15T22:48:52.365Z,25.8
2022-09-15T22:53:55.127Z,25.9
2022-09-15T22:58:57.327Z,26
2022-09-15T23:03:56.634Z,25.8
2022-09-15T23:08:56.536Z,25.8
2022-09-15T23:13:58.860Z,26
2022-09-15T23:18:58.166Z,25.8
2022-09-15T23:23:57.917Z,25.8
2022-09-15T23:29:00.565Z,25.8
2022-09-15T23:34:02.679Z,25.9
2022-09-15T23:39:02.010Z,25.7
2022-09-15T23:44:04.739Z,25.9
2022-09-15T23:49:04.329Z,25.8
2022-09-15T23:54:06.987Z,25.7
2022-09-15T23:59:09.087Z,25.9
